createdAt,value
2018-01-17T00:02:20.003Z,-0.40
2018-01-17T00:04:48.083Z,-0.20
2018-01-17T00:07:16.043Z,0.00
2018-01-17T00:09:43.902Z,-0.30
2018-01-17T00:12:11.861Z,-0.50
2018-01-17T00:14:39.822Z,-0.50
2018-01-17T00:17:07.760Z,-0.50
2018-01-17T00:19:35.839Z,-0.10
2018-01-17T00:22:03.839Z,-0.20
2018-01-17T00:24:32.099Z,-0.20
2018-01-17T00:26:59.980Z,0.10
2018-01-17T00:29:27.843Z,0.40
2018-01-17T00:31:56.460Z,0.20
2018-01-17T00:34:24.687Z,0.20
2018-01-17T00:36:52.459Z,0.00
2018-01-17T00:39:20.400Z,0.00
2018-01-17T00:41:48.320Z,0.00
2018-01-17T00:44:16.160Z,0.20
2018-01-17T00:46:44.061Z,0.30
2018-01-17T00:49:12.299Z,0.00
2018-01-17T00:51:40.239Z,0.00
2018-01-17T00:54:08.380Z,0.00
2018-01-17T00:56:36.300Z,-0.10
2018-01-17T00:59:04.242Z,0.00
2018-01-17T01:01:32.121Z,-0.20
2018-01-17T01:04:00.701Z,-0.30
2018-01-17T01:06:28.621Z,-0.30
2018-01-17T01:08:57.802Z,0.00
2018-01-17T01:11:25.561Z,-0.10
2018-01-17T01:13:53.741Z,-0.10
2018-01-17T01:16:21.722Z,-0.20
2018-01-17T01:18:50.024Z,-0.20
2018-01-17T01:21:17.921Z,-0.20
2018-01-17T01:23:46.621Z,-0.20
2018-01-17T01:26:14.502Z,0.00
2018-01-17T01:28:42.641Z,0.30
2018-01-17T01:31:10.462Z,0.60
2018-01-17T01:33:39.625Z,0.60
2018-01-17T01:36:07.524Z,0.70
2018-01-17T01:38:35.901Z,0.80
2018-01-17T01:41:03.821Z,0.70
2018-01-17T01:43:31.860Z,0.70
2018-01-17T01:45:59.740Z,0.70
2018-01-17T01:48:28.221Z,0.90
2018-01-17T01:50:57.663Z,1.00
2018-01-17T01:53:26.142Z,1.20
2018-01-17T01:55:54.301Z,1.20
2018-01-17T01:58:22.181Z,1.10
2018-01-17T02:00:49.991Z,0.90
2018-01-17T02:03:17.864Z,1.00
2018-01-17T02:05:45.986Z,1.00
2018-01-17T02:08:13.804Z,0.80
2018-01-17T02:10:42.441Z,0.80
2018-01-17T02:13:10.343Z,0.80
2018-01-17T02:15:38.782Z,0.70
2018-01-17T02:18:08.743Z,0.80
2018-01-17T02:20:36.639Z,0.80
2018-01-17T02:23:04.958Z,0.60
2018-01-17T02:25:32.858Z,0.40
2018-01-17T02:28:00.898Z,0.60
2018-01-17T02:30:29.818Z,0.60
2018-01-17T02:32:57.938Z,0.80
2018-01-17T02:35:25.941Z,1.00
2018-01-17T02:37:53.659Z,1.10
2018-01-17T02:40:33.319Z,1.20
2018-01-17T02:43:01.599Z,1.30
2018-01-17T02:45:29.759Z,1.40
2018-01-17T02:47:58.402Z,1.30
2018-01-17T02:50:26.339Z,1.30
2018-01-17T02:52:55.219Z,1.40
2018-01-17T02:55:23.053Z,1.40
2018-01-17T02:57:52.058Z,1.50
2018-01-17T03:00:23.324Z,1.50
2018-01-17T03:02:51.188Z,1.40
2018-01-17T03:05:19.346Z,1.40
2018-01-17T03:07:47.267Z,1.40
2018-01-17T03:10:16.148Z,1.20
2018-01-17T03:12:44.028Z,1.20
2018-01-17T03:15:12.809Z,1.20
2018-01-17T03:17:40.646Z,1.20
2018-01-17T03:20:08.526Z,1.30
2018-01-17T03:22:36.406Z,1.40
2018-01-17T03:25:04.346Z,1.50
2018-01-17T03:27:32.267Z,1.60
2018-01-17T03:30:00.387Z,1.70
2018-01-17T03:32:28.227Z,1.80
2018-01-17T03:34:56.167Z,1.70
2018-01-17T03:37:24.007Z,1.70
2018-01-17T03:39:52.046Z,1.70
2018-01-17T03:42:20.746Z,1.60
2018-01-17T03:44:48.647Z,1.60
2018-01-17T03:47:16.646Z,1.60
2018-01-17T03:49:44.706Z,1.60
2018-01-17T03:52:12.486Z,1.60
2018-01-17T03:54:40.386Z,1.60
2018-01-17T03:57:10.383Z,1.60
2018-01-17T03:59:38.282Z,1.60
2018-01-17T04:02:06.486Z,1.60
2018-01-17T04:04:34.784Z,1.60
2018-01-17T04:07:02.525Z,1.60
2018-01-17T04:09:30.384Z,1.60
2018-01-17T04:11:58.444Z,1.50
2018-01-17T04:14:26.324Z,1.50
2018-01-17T04:16:54.205Z,1.40
2018-01-17T04:19:21.984Z,1.40
2018-01-17T04:21:49.867Z,1.40
2018-01-17T04:24:17.764Z,1.50
2018-01-17T04:26:46.025Z,1.60
2018-01-17T04:29:14.245Z,1.60
2018-01-17T04:31:42.504Z,1.70
2018-01-17T04:34:10.304Z,1.80
2018-01-17T04:36:38.210Z,1.90
2018-01-17T04:39:06.884Z,2.00
2018-01-17T04:41:34.805Z,2.00
2018-01-17T04:44:02.806Z,2.00
2018-01-17T04:46:30.544Z,2.00
2018-01-17T04:48:58.364Z,2.00
2018-01-17T04:51:26.326Z,2.10
2018-01-17T04:53:54.284Z,2.10
2018-01-17T04:56:22.144Z,2.20
2018-01-17T04:58:50.364Z,2.20
2018-01-17T05:01:18.268Z,2.10
2018-01-17T05:03:46.188Z,2.00
2018-01-17T05:06:14.028Z,1.90
2018-01-17T05:08:42.108Z,1.90
2018-01-17T05:11:09.990Z,1.80
2018-01-17T05:13:37.988Z,1.90
2018-01-17T05:16:05.968Z,1.90
2018-01-17T05:18:33.882Z,1.90
2018-01-17T05:21:01.703Z,1.80
2018-01-17T05:23:29.981Z,1.60
2018-01-17T05:25:57.761Z,1.60
2018-01-17T05:28:25.661Z,1.50
2018-01-17T05:30:53.761Z,1.50
2018-01-17T05:33:21.982Z,1.50
2018-01-17T05:35:49.921Z,1.50
2018-01-17T05:38:18.261Z,1.50
2018-01-17T05:40:46.161Z,1.40
2018-01-17T05:43:14.322Z,1.40
2018-01-17T05:45:42.221Z,1.30
2018-01-17T05:48:10.042Z,1.30
2018-01-17T05:50:37.921Z,1.30
2018-01-17T05:53:06.561Z,1.30
2018-01-17T05:55:34.502Z,1.40
2018-01-17T05:58:02.299Z,1.40
2018-01-17T06:00:30.065Z,1.40
2018-01-17T06:02:57.973Z,1.60
2018-01-17T06:05:25.744Z,1.80
2018-01-17T06:07:53.905Z,1.90
2018-01-17T06:10:22.185Z,2.00
2018-01-17T06:12:50.385Z,2.10
2018-01-17T06:15:18.445Z,2.20
2018-01-17T06:17:46.628Z,2.20
2018-01-17T06:20:14.684Z,2.10
2018-01-17T06:22:42.665Z,2.10
2018-01-17T06:25:10.481Z,2.20
2018-01-17T06:27:38.384Z,2.20
2018-01-17T06:30:06.264Z,2.20
2018-01-17T06:32:34.885Z,2.20
2018-01-17T06:35:02.825Z,2.20
2018-01-17T06:37:31.565Z,2.00
2018-01-17T06:39:59.365Z,1.90
2018-01-17T06:42:27.585Z,2.00
2018-01-17T06:44:56.364Z,1.90
2018-01-17T06:47:24.227Z,1.80
2018-01-17T06:49:52.163Z,1.70
2018-01-17T06:52:20.023Z,1.60
2018-01-17T06:54:48.161Z,1.50
2018-01-17T06:57:16.102Z,1.50
2018-01-17T06:59:44.004Z,1.40
2018-01-17T07:02:12.141Z,1.50
2018-01-17T07:04:40.001Z,1.50
2018-01-17T07:07:07.781Z,1.50
2018-01-17T07:09:35.823Z,1.50
2018-01-17T07:12:03.782Z,1.50
2018-01-17T07:14:32.061Z,1.50
2018-01-17T07:17:00.223Z,1.60
2018-01-17T07:19:29.050Z,1.60
2018-01-17T07:21:57.000Z,1.70
2018-01-17T07:24:26.622Z,1.70
2018-01-17T07:26:54.419Z,1.60
2018-01-17T07:29:23.162Z,1.60
2018-01-17T07:31:51.000Z,1.60
2018-01-17T07:34:19.701Z,1.60
2018-01-17T07:36:47.460Z,1.60
2018-01-17T07:39:15.322Z,1.60
2018-01-17T07:41:43.363Z,1.70
2018-01-17T07:44:11.940Z,1.70
2018-01-17T07:46:39.841Z,1.70
2018-01-17T07:49:07.981Z,1.70
2018-01-17T07:51:35.943Z,1.70
2018-01-17T07:54:03.921Z,1.70
2018-01-17T07:56:31.808Z,1.60
2018-01-17T07:58:59.561Z,1.60
2018-01-17T08:01:27.324Z,1.40
2018-01-17T08:03:55.101Z,1.10
2018-01-17T08:06:22.883Z,0.80
2018-01-17T08:08:50.711Z,0.60
2018-01-17T08:11:18.463Z,0.50
2018-01-17T08:13:46.405Z,0.60
2018-01-17T08:16:14.323Z,0.70
2018-01-17T08:18:42.284Z,0.80
2018-01-17T08:21:10.343Z,1.00
2018-01-17T08:23:38.245Z,1.20
2018-01-17T08:26:06.379Z,1.20
2018-01-17T08:28:34.802Z,1.00
2018-01-17T08:31:03.085Z,0.90
2018-01-17T08:33:31.383Z,1.00
2018-01-17T08:35:59.190Z,1.00
2018-01-17T08:38:27.164Z,1.10
2018-01-17T08:40:55.023Z,0.90
2018-01-17T08:43:22.941Z,0.60
2018-01-17T08:45:51.099Z,0.50
2018-01-17T08:48:19.860Z,0.80
2018-01-17T08:50:47.739Z,0.80
2018-01-17T08:53:15.599Z,1.10
2018-01-17T08:55:43.479Z,1.10
2018-01-17T08:58:11.342Z,1.20
2018-01-17T09:00:39.339Z,1.20
2018-01-17T09:03:07.259Z,1.20
2018-01-17T09:05:35.099Z,1.40
2018-01-17T09:08:03.048Z,1.60
2018-01-17T09:10:30.902Z,1.80
2018-01-17T09:12:59.672Z,2.30
2018-01-17T09:15:27.742Z,2.30
2018-01-17T09:17:55.638Z,2.60
2018-01-17T09:20:23.443Z,2.80
2018-01-17T09:22:51.365Z,2.90
2018-01-17T09:25:20.000Z,3.10
2018-01-17T09:27:47.959Z,3.10
2018-01-17T09:30:15.839Z,3.10
2018-01-17T09:32:43.779Z,3.10
2018-01-17T09:35:12.181Z,3.00
2018-01-17T09:37:40.799Z,3.10
2018-01-17T09:40:09.055Z,3.00
2018-01-17T09:42:36.859Z,3.20
2018-01-17T09:45:04.606Z,3.50
2018-01-17T09:47:32.441Z,3.90
2018-01-17T09:50:00.379Z,4.40
2018-01-17T09:52:28.280Z,4.50
2018-01-17T09:54:56.147Z,4.20
2018-01-17T09:57:23.962Z,4.00
2018-01-17T09:59:52.504Z,4.10
2018-01-17T10:02:20.422Z,4.10
2018-01-17T10:04:48.360Z,4.30
2018-01-17T10:07:16.141Z,4.50
2018-01-17T10:09:44.962Z,4.60
2018-01-17T10:12:12.861Z,4.70
2018-01-17T10:14:40.707Z,4.80
2018-01-17T10:17:08.559Z,5.00
2018-01-17T10:19:36.578Z,4.90
2018-01-17T10:22:04.479Z,4.80
2018-01-17T10:24:32.298Z,4.80
2018-01-17T10:29:33.878Z,4.80
2018-01-17T10:32:01.902Z,4.80
2018-01-17T10:34:29.768Z,4.80
2018-01-17T10:36:57.527Z,4.90
2018-01-17T10:39:25.388Z,4.90
2018-01-17T10:41:53.223Z,4.90
2018-01-17T10:44:21.848Z,4.70
2018-01-17T10:46:50.009Z,4.70
2018-01-17T10:49:17.828Z,4.60
2018-01-17T10:51:45.707Z,4.50
2018-01-17T10:54:13.368Z,4.50
2018-01-17T10:56:48.141Z,4.50
2018-01-17T10:59:15.792Z,4.50
2018-01-17T11:01:43.499Z,4.50
2018-01-17T11:04:11.242Z,4.60
2018-01-17T11:06:39.059Z,4.60
2018-01-17T11:09:07.178Z,4.70
2018-01-17T11:11:35.179Z,4.90
2018-01-17T11:14:05.033Z,4.90
2018-01-17T11:16:32.822Z,4.70
2018-01-17T11:19:00.661Z,4.60
2018-01-17T11:21:28.480Z,4.50
2018-01-17T11:26:28.579Z,4.30
2018-01-17T11:28:56.387Z,4.30
2018-01-17T11:31:24.315Z,4.20
2018-01-17T11:33:52.223Z,4.20
2018-01-17T11:36:19.961Z,4.20
2018-01-17T11:38:47.822Z,4.20
2018-01-17T11:41:15.899Z,4.30
2018-01-17T11:43:43.947Z,4.30
2018-01-17T11:46:12.304Z,4.40
2018-01-17T11:48:40.261Z,4.50
2018-01-17T11:51:08.141Z,4.50
2018-01-17T11:53:36.102Z,4.50
2018-01-17T11:56:03.941Z,4.50
2018-01-17T11:58:31.786Z,4.40
2018-01-17T12:00:59.591Z,4.30
2018-01-17T12:03:27.907Z,4.30
2018-01-17T12:05:55.888Z,4.20
2018-01-17T12:08:24.308Z,4.10
2018-01-17T12:10:52.887Z,4.10
2018-01-17T12:13:20.668Z,4.10
2018-01-17T12:15:48.568Z,4.20
2018-01-17T12:18:16.528Z,4.30
2018-01-17T12:20:45.643Z,4.60
2018-01-17T12:23:13.982Z,4.50
2018-01-17T12:25:41.902Z,4.60
2018-01-17T12:28:09.883Z,4.60
2018-01-17T12:30:38.507Z,4.50
2018-01-17T12:33:06.885Z,4.50
2018-01-17T12:35:34.801Z,4.40
2018-01-17T12:38:02.821Z,4.50
2018-01-17T12:40:30.701Z,4.50
2018-01-17T12:42:58.663Z,4.50
2018-01-17T12:45:26.601Z,4.50
2018-01-17T12:47:54.642Z,4.50
2018-01-17T12:50:22.482Z,4.50
2018-01-17T12:52:50.441Z,4.50
2018-01-17T12:55:18.252Z,4.60
2018-01-17T12:57:46.052Z,4.60
2018-01-17T13:00:13.924Z,4.60
2018-01-17T13:02:41.802Z,4.60
2018-01-17T13:05:09.849Z,4.50
2018-01-17T13:07:37.725Z,4.40
2018-01-17T13:10:05.642Z,4.30
2018-01-17T13:12:33.642Z,4.30
2018-01-17T13:15:01.669Z,4.30
2018-01-17T13:17:31.066Z,4.50
2018-01-17T13:19:58.924Z,4.50
2018-01-17T13:22:26.781Z,4.50
2018-01-17T13:24:54.719Z,4.60
2018-01-17T13:27:22.988Z,4.60
2018-01-17T13:29:50.940Z,4.60
2018-01-17T13:32:18.720Z,4.60
2018-01-17T13:34:46.881Z,4.60
2018-01-17T13:37:14.764Z,4.60
2018-01-17T13:39:42.640Z,4.60
2018-01-17T13:42:10.643Z,4.50
2018-01-17T13:44:38.585Z,4.40
2018-01-17T13:47:06.424Z,4.30
2018-01-17T13:49:34.281Z,4.30
2018-01-17T13:52:02.040Z,4.30
2018-01-17T13:54:29.865Z,4.30
2018-01-17T13:56:58.482Z,4.20
2018-01-17T13:59:26.445Z,4.20
2018-01-17T14:01:54.178Z,4.20
2018-01-17T14:04:22.082Z,4.10
2018-01-17T14:06:50.467Z,4.10
2018-01-17T14:09:18.424Z,4.00
2018-01-17T14:11:46.779Z,4.10
2018-01-17T14:14:14.747Z,4.00
2018-01-17T14:16:42.622Z,4.00
2018-01-17T14:19:10.583Z,4.00
2018-01-17T14:21:38.524Z,3.90
2018-01-17T14:24:07.100Z,3.80
2018-01-17T14:26:35.778Z,3.90
2018-01-17T14:29:03.721Z,3.90
2018-01-17T14:31:31.638Z,3.90
2018-01-17T14:33:59.566Z,3.90
2018-01-17T14:36:27.581Z,3.90
2018-01-17T14:38:55.519Z,3.90
2018-01-17T14:41:23.390Z,3.90
2018-01-17T14:43:51.300Z,3.90
2018-01-17T14:46:19.198Z,3.90
2018-01-17T14:48:47.143Z,3.80
2018-01-17T14:51:15.048Z,3.80
2018-01-17T14:53:43.048Z,3.70
2018-01-17T14:56:10.944Z,3.70
2018-01-17T14:58:39.142Z,3.70
2018-01-17T15:01:07.002Z,3.70
2018-01-17T15:03:34.742Z,3.70
2018-01-17T15:06:02.737Z,3.60
2018-01-17T15:08:30.662Z,3.60
2018-01-17T15:10:58.483Z,3.50
2018-01-17T15:13:26.462Z,3.50
2018-01-17T15:15:54.321Z,3.60
2018-01-17T15:18:22.208Z,3.60
2018-01-17T15:20:50.159Z,3.60
2018-01-17T15:23:18.159Z,3.60
2018-01-17T15:25:47.606Z,3.60
2018-01-17T15:28:15.724Z,3.60
2018-01-17T15:30:43.702Z,3.50
2018-01-17T15:33:11.982Z,3.50
2018-01-17T15:35:40.022Z,3.50
2018-01-17T15:38:07.987Z,3.40
2018-01-17T15:40:35.938Z,3.40
2018-01-17T15:43:03.981Z,3.30
2018-01-17T15:45:31.908Z,3.30
2018-01-17T15:47:59.779Z,3.30
2018-01-17T15:50:27.561Z,3.30
2018-01-17T15:52:55.402Z,3.30
2018-01-17T15:55:23.261Z,3.30
2018-01-17T15:57:51.121Z,3.30
2018-01-17T16:00:19.133Z,3.20
2018-01-17T16:02:46.982Z,3.20
2018-01-17T16:05:14.883Z,3.10
2018-01-17T16:07:42.742Z,3.20
2018-01-17T16:10:10.990Z,3.10
2018-01-17T16:12:38.798Z,3.10
2018-01-17T16:15:06.629Z,3.00
2018-01-17T16:17:34.563Z,3.00
2018-01-17T16:20:02.368Z,3.00
2018-01-17T16:22:30.242Z,3.00
2018-01-17T16:24:58.122Z,3.00
2018-01-17T16:27:25.920Z,3.00
2018-01-17T16:29:53.765Z,2.90
2018-01-17T16:32:21.623Z,2.90
2018-01-17T16:34:49.543Z,2.80
2018-01-17T16:37:17.363Z,2.90
2018-01-17T16:39:45.224Z,2.90
2018-01-17T16:42:13.046Z,2.90
2018-01-17T16:44:40.983Z,2.90
2018-01-17T16:47:08.823Z,2.90
2018-01-17T16:49:36.663Z,2.90
2018-01-17T16:52:04.943Z,2.80
2018-01-17T16:54:32.803Z,2.70
2018-01-17T16:57:00.784Z,2.60
2018-01-17T17:02:01.702Z,2.50
2018-01-17T17:04:29.476Z,2.40
2018-01-17T17:06:57.205Z,2.30
2018-01-17T17:09:24.990Z,2.20
2018-01-17T17:11:52.803Z,2.20
2018-01-17T17:14:20.672Z,2.20
2018-01-17T17:16:48.463Z,2.10
2018-01-17T17:19:16.582Z,2.00
2018-01-17T17:21:44.343Z,1.90
2018-01-17T17:24:12.129Z,1.80
2018-01-17T17:26:39.862Z,1.70
2018-01-17T17:29:07.625Z,1.60
2018-01-17T17:31:35.544Z,1.70
2018-01-17T17:34:03.324Z,1.60
2018-01-17T17:36:31.123Z,1.60
2018-01-17T17:38:58.891Z,1.60
2018-01-17T17:41:26.662Z,1.50
2018-01-17T17:43:54.480Z,1.50
2018-01-17T17:46:22.220Z,1.50
2018-01-17T17:48:50.121Z,1.50
2018-01-17T17:51:17.901Z,1.50
2018-01-17T17:53:45.740Z,1.50
2018-01-17T17:56:13.501Z,1.40
2018-01-17T17:58:41.561Z,1.30
2018-01-17T18:01:09.601Z,1.20
2018-01-17T18:03:37.327Z,1.20
2018-01-17T18:06:05.098Z,1.20
2018-01-17T18:08:33.061Z,1.20
2018-01-17T18:11:00.880Z,1.30
2018-01-17T18:13:28.800Z,1.40
2018-01-17T18:15:56.899Z,1.50
2018-01-17T18:18:25.987Z,1.60
2018-01-17T18:20:53.842Z,1.70
2018-01-17T18:23:21.703Z,1.80
2018-01-17T18:25:49.581Z,1.70
2018-01-17T18:28:17.480Z,1.70
2018-01-17T18:30:45.300Z,1.60
2018-01-17T18:33:13.140Z,1.50
2018-01-17T18:35:41.379Z,1.50
2018-01-17T18:38:09.341Z,1.50
2018-01-17T18:40:37.322Z,1.40
2018-01-17T18:43:05.125Z,1.40
2018-01-17T18:45:33.504Z,1.40
2018-01-17T18:48:01.558Z,1.40
2018-01-17T18:50:29.465Z,1.50
2018-01-17T18:52:57.340Z,1.40
2018-01-17T18:55:25.299Z,1.40
2018-01-17T18:57:53.203Z,1.40
2018-01-17T19:00:22.388Z,1.30
2018-01-17T19:02:50.623Z,1.20
2018-01-17T19:05:18.784Z,1.30
2018-01-17T19:07:47.461Z,1.20
2018-01-17T19:10:15.721Z,1.20
2018-01-17T19:12:44.082Z,1.10
2018-01-17T19:15:12.761Z,1.00
2018-01-17T19:17:40.723Z,0.80
2018-01-17T19:20:09.021Z,0.60
2018-01-17T19:22:36.861Z,0.50
2018-01-17T19:25:04.562Z,0.50
2018-01-17T19:27:32.502Z,0.20
2018-01-17T19:30:00.404Z,-0.10
2018-01-17T19:32:28.642Z,-0.20
2018-01-17T19:34:56.501Z,-0.30
2018-01-17T19:37:25.202Z,-0.60
2018-01-17T19:39:53.982Z,-0.70
2018-01-17T19:42:22.113Z,-0.70
2018-01-17T19:44:50.827Z,-0.70
2018-01-17T19:47:18.991Z,-0.70
2018-01-17T19:49:46.970Z,-0.50
2018-01-17T19:52:14.961Z,-0.40
2018-01-17T19:54:42.839Z,-0.60
2018-01-17T19:57:11.488Z,-0.90
2018-01-17T19:59:40.131Z,-0.90
2018-01-17T20:02:07.963Z,-0.90
2018-01-17T20:04:35.701Z,-0.80
2018-01-17T20:07:03.456Z,-0.60
2018-01-17T20:09:31.249Z,-0.40
2018-01-17T20:11:59.006Z,-0.20
2018-01-17T20:14:26.912Z,-0.10
2018-01-17T20:16:55.485Z,0.00
2018-01-17T20:19:23.240Z,-0.10
2018-01-17T20:21:51.042Z,0.10
2018-01-17T20:24:18.842Z,0.20
2018-01-17T20:26:46.631Z,0.30
2018-01-17T20:29:15.131Z,0.40
2018-01-17T20:31:42.960Z,0.40
2018-01-17T20:34:10.780Z,0.40
2018-01-17T20:36:38.480Z,0.50
2018-01-17T20:39:06.382Z,0.50
2018-01-17T20:41:34.880Z,0.60
2018-01-17T20:44:02.661Z,0.50
2018-01-17T20:46:30.406Z,0.60
2018-01-17T20:48:58.122Z,0.60
2018-01-17T20:51:25.832Z,0.60
2018-01-17T20:53:53.662Z,0.60
2018-01-17T20:56:22.262Z,0.60
2018-01-17T20:58:50.063Z,0.60
2018-01-17T21:01:17.808Z,0.60
2018-01-17T21:03:46.409Z,0.60
2018-01-17T21:06:14.290Z,0.70
2018-01-17T21:08:42.090Z,0.70
2018-01-17T21:11:10.614Z,0.80
2018-01-17T21:13:38.401Z,0.80
2018-01-17T21:16:06.140Z,0.80
2018-01-17T21:18:33.921Z,0.80
2018-01-17T21:21:01.739Z,0.90
2018-01-17T21:23:30.144Z,0.90
2018-01-17T21:25:57.944Z,0.90
2018-01-17T21:28:26.433Z,0.90
2018-01-17T21:30:54.190Z,0.90
2018-01-17T21:33:21.944Z,0.90
2018-01-17T21:35:49.726Z,0.90
2018-01-17T21:38:17.502Z,0.90
2018-01-17T21:40:45.303Z,0.90
2018-01-17T21:43:18.643Z,0.90
2018-01-17T21:45:50.387Z,0.90
2018-01-17T21:48:18.100Z,0.80
2018-01-17T21:50:45.847Z,0.80
2018-01-17T21:53:13.628Z,0.80
2018-01-17T21:55:41.356Z,0.70
2018-01-17T21:58:09.108Z,0.80
2018-01-17T22:00:37.654Z,0.80
2018-01-17T22:03:06.303Z,0.80
2018-01-17T22:05:34.160Z,0.80
2018-01-17T22:08:01.922Z,0.80
2018-01-17T22:10:29.822Z,0.80
2018-01-17T22:12:58.108Z,0.80
2018-01-17T22:15:25.982Z,0.70
2018-01-17T22:17:53.945Z,0.70
2018-01-17T22:20:21.802Z,0.70
2018-01-17T22:22:49.763Z,0.80
2018-01-17T22:25:17.761Z,0.80
2018-01-17T22:27:46.102Z,0.70
2018-01-17T22:30:14.041Z,0.70
2018-01-17T22:32:41.941Z,0.70
2018-01-17T22:35:10.087Z,0.60
2018-01-17T22:37:38.182Z,0.60
2018-01-17T22:40:06.020Z,0.60
2018-01-17T22:42:34.301Z,0.60
2018-01-17T22:45:02.207Z,0.60
2018-01-17T22:47:30.121Z,0.50
2018-01-17T22:49:58.002Z,0.50
2018-01-17T22:52:25.922Z,0.50
2018-01-17T22:54:55.302Z,0.50
2018-01-17T22:57:23.103Z,0.50
2018-01-17T22:59:51.220Z,0.50
2018-01-17T23:02:19.947Z,0.50
2018-01-17T23:04:47.808Z,0.50
2018-01-17T23:07:15.868Z,0.50
2018-01-17T23:09:44.468Z,0.40
2018-01-17T23:12:12.487Z,0.40
2018-01-17T23:14:40.427Z,0.40
2018-01-17T23:17:08.268Z,0.40
2018-01-17T23:19:36.447Z,0.40
2018-01-17T23:22:04.351Z,0.40
2018-01-17T23:24:32.289Z,0.40
2018-01-17T23:27:00.127Z,0.40
2018-01-17T23:29:28.009Z,0.40
2018-01-17T23:31:56.367Z,0.50
2018-01-17T23:34:24.488Z,0.50
2018-01-17T23:36:52.455Z,0.40
2018-01-17T23:39:20.589Z,0.40
2018-01-17T23:41:48.407Z,0.40
2018-01-17T23:44:16.307Z,0.50
2018-01-17T23:46:44.187Z,0.50
2018-01-17T23:49:12.028Z,0.60
2018-01-17T23:51:40.228Z,0.60
2018-01-17T23:54:08.121Z,0.70
2018-01-17T23:56:35.902Z,0.70
2018-01-17T23:59:03.840Z,0.70
